Time;durP1;ratioP1;P1;durP2;ratioP2;P2;SDS_P1;SDS_P2;PMS_P1;PMS_P2;Temp;Humidity;BMP_temperature;BMP_pressure;BME280_temperature;BME280_humidity;BME280_pressure;Samples;Min_cycle;Max_cycle;Signal;HPM_P1;HPM_P2
2021/01/31 00:00:15;;;;;;;5.00;4.50;;;8.00;77.50;;;;;;6186577;23;20413;-75
2021/01/31 00:02:41;;;;;;;6.20;5.70;;;8.00;77.30;;;;;;6185991;23;20408;-75
2021/01/31 00:05:11;;;;;;;6.17;5.67;;;7.90;77.40;;;;;;6186006;23;20416;-74
2021/01/31 00:07:37;;;;;;;5.10;4.70;;;7.90;77.70;;;;;;6186179;23;20408;-74
2021/01/31 00:10:05;;;;;;;6.53;5.13;;;7.90;77.70;;;;;;6183812;23;20493;-74
2021/01/31 00:12:31;;;;;;;5.57;5.07;;;7.90;78.20;;;;;;6185366;23;20460;-74
2021/01/31 00:14:58;;;;;;;6.23;5.47;;;7.90;77.50;;;;;;6186431;23;20420;-74
2021/01/31 00:17:26;;;;;;;6.90;6.30;;;7.90;77.70;;;;;;6185753;23;20924;-74
2021/01/31 00:19:52;;;;;;;6.33;5.83;;;7.80;77.70;;;;;;6186044;23;20421;-73
2021/01/31 00:22:19;;;;;;;6.60;6.10;;;7.80;78.20;;;;;;6185867;23;20413;-74
2021/01/31 00:24:53;;;;;;;7.30;6.67;;;7.90;78.40;;;;;;6186080;23;20423;-74
2021/01/31 00:27:23;;;;;;;7.40;6.60;;;7.90;78.40;;;;;;6185603;23;20412;-74
2021/01/31 00:29:50;;;;;;;6.33;5.83;;;7.90;78.30;;;;;;6185982;23;20414;-73
2021/01/31 00:32:22;;;;;;;6.67;6.07;;;7.90;78.10;;;;;;6186043;23;20901;-73
2021/01/31 00:34:50;;;;;;;6.43;5.80;;;8.00;78.20;;;;;;6185763;23;20409;-74
2021/01/31 00:37:17;;;;;;;5.63;5.13;;;8.00;77.90;;;;;;6183834;23;20413;-74
2021/01/31 00:39:46;;;;;;;6.40;5.80;;;8.00;77.80;;;;;;6185273;23;20446;-74
2021/01/31 00:42:16;;;;;;;6.90;6.30;;;8.00;77.80;;;;;;6184955;23;20405;-74
2021/01/31 00:44:44;;;;;;;7.10;6.40;;;8.00;77.70;;;;;;6186066;23;20413;-74
2021/01/31 00:47:10;;;;;;;6.83;6.23;;;7.90;77.70;;;;;;6185966;23;20446;-74
2021/01/31 00:49:37;;;;;;;7.03;6.43;;;8.00;77.50;;;;;;6185865;23;20436;-74
2021/01/31 00:52:05;;;;;;;6.73;6.13;;;7.90;77.50;;;;;;6185406;23;20583;-74
2021/01/31 00:54:32;;;;;;;6.93;5.90;;;8.00;77.80;;;;;;6185681;23;20472;-74
2021/01/31 00:56:58;;;;;;;7.90;7.20;;;7.90;77.50;;;;;;6185587;23;20474;-74
2021/01/31 00:59:25;;;;;;;7.40;6.70;;;7.90;77.80;;;;;;6185499;23;20451;-74
2021/01/31 01:01:51;;;;;;;7.90;6.60;;;7.90;77.90;;;;;;6184656;23;20420;-74
2021/01/31 01:04:18;;;;;;;7.70;7.00;;;7.90;78.30;;;;;;6184295;23;20409;-74
2021/01/31 01:06:45;;;;;;;6.30;5.70;;;8.00;78.10;;;;;;6185799;23;20424;-75
2021/01/31 01:09:13;;;;;;;7.43;6.63;;;8.00;78.10;;;;;;6185595;23;20427;-74
2021/01/31 01:11:39;;;;;;;7.60;6.90;;;8.10;77.90;;;;;;6185767;23;20445;-73
2021/01/31 01:14:06;;;;;;;7.40;6.80;;;8.10;77.50;;;;;;6186261;23;20409;-74
2021/01/31 01:16:33;;;;;;;7.33;6.73;;;8.10;77.30;;;;;;6185215;23;20468;-74
2021/01/31 01:18:59;;;;;;;6.93;6.33;;;8.20;77.40;;;;;;6185310;23;20425;-74
2021/01/31 01:21:26;;;;;;;7.63;6.93;;;8.20;77.00;;;;;;6185291;23;20498;-74
2021/01/31 01:23:52;;;;;;;8.40;7.60;;;8.10;76.70;;;;;;6185618;23;20414;-74
2021/01/31 01:26:20;;;;;;;8.33;7.53;;;8.10;77.30;;;;;;6185718;23;20409;-74
2021/01/31 01:28:46;;;;;;;7.17;6.50;;;8.10;77.40;;;;;;6183199;23;20766;-74
2021/01/31 01:31:13;;;;;;;8.40;6.83;;;8.10;77.30;;;;;;6185064;23;20461;-74
2021/01/31 01:33:39;;;;;;;7.40;6.80;;;8.10;77.20;;;;;;6185634;23;20418;-74
2021/01/31 01:36:06;;;;;;;7.50;6.80;;;8.10;77.00;;;;;;6184896;23;20428;-73
2021/01/31 01:38:32;;;;;;;7.73;7.03;;;8.10;76.90;;;;;;6185227;23;20912;-74
2021/01/31 01:40:59;;;;;;;9.17;8.27;;;8.10;76.90;;;;;;6185458;23;20409;-74
2021/01/31 01:43:31;;;;;;;7.27;6.57;;;8.10;76.70;;;;;;6185138;23;20801;-74
2021/01/31 01:46:20;;;;;;;8.73;8.03;;;8.10;76.60;;;;;;6184840;23;20451;-74
2021/01/31 01:48:49;;;;;;;7.80;7.07;;;8.00;76.70;;;;;;6180179;23;20479;-74
2021/01/31 01:51:16;;;;;;;8.03;7.23;;;8.00;76.40;;;;;;6185203;23;20413;-74
2021/01/31 01:53:45;;;;;;;7.73;7.03;;;8.00;76.60;;;;;;6185486;23;20490;-74
2021/01/31 01:56:19;;;;;;;7.40;6.70;;;8.10;76.70;;;;;;6182713;23;20899;-76
2021/01/31 01:58:46;;;;;;;7.33;6.60;;;8.10;76.20;;;;;;6184673;23;20419;-75
2021/01/31 02:01:17;;;;;;;7.77;7.00;;;8.10;76.10;;;;;;6184705;23;20410;-75
2021/01/31 02:03:44;;;;;;;7.37;6.67;;;8.10;76.00;;;;;;6184610;23;20468;-75
2021/01/31 02:06:17;;;;;;;6.43;5.83;;;8.10;75.60;;;;;;6185125;23;20742;-74
2021/01/31 02:08:43;;;;;;;6.50;6.00;;;8.00;75.40;;;;;;6184707;23;20439;-74
2021/01/31 02:11:10;;;;;;;7.07;6.40;;;8.00;75.60;;;;;;6184946;23;20412;-74
2021/01/31 02:13:39;;;;;;;6.97;6.27;;;8.10;75.70;;;;;;6184762;23;20479;-74
2021/01/31 02:16:13;;;;;;;7.43;6.83;;;8.10;75.40;;;;;;6184912;23;20418;-74
2021/01/31 02:18:52;;;;;;;6.40;5.90;;;8.10;75.20;;;;;;6185068;23;20418;-74
2021/01/31 02:21:37;;;;;;;7.10;6.40;;;8.10;74.90;;;;;;6183729;23;20417;-74
2021/01/31 02:24:40;;;;;;;6.20;5.60;;;8.00;74.10;;;;;;6185120;23;20771;-74
2021/01/31 02:27:45;;;;;;;6.53;6.00;;;8.00;74.80;;;;;;6154881;23;20421;-74
2021/01/31 02:30:53;;;;;;;6.40;5.80;;;8.10;74.70;;;;;;6184785;23;20421;-75
2021/01/31 02:33:42;;;;;;;7.03;6.43;;;8.10;74.80;;;;;;6100754;23;20456;-75
2021/01/31 02:36:16;;;;;;;7.00;5.87;;;8.20;74.40;;;;;;6184837;23;20417;-75
2021/01/31 02:38:48;;;;;;;7.00;6.40;;;8.10;73.80;;;;;;6184555;23;20437;-75
2021/01/31 02:41:24;;;;;;;7.43;6.30;;;8.10;74.00;;;;;;6184280;23;20414;-74
2021/01/31 02:43:51;;;;;;;6.80;6.15;;;8.10;73.60;;;;;;6184367;23;20415;-74
2021/01/31 02:46:27;;;;;;;7.80;6.97;;;8.00;73.20;;;;;;6184654;23;20182;-73
2021/01/31 02:49:02;;;;;;;6.77;6.17;;;8.00;73.40;;;;;;6183181;23;20471;-74
2021/01/31 02:51:32;;;;;;;7.77;6.97;;;8.00;73.50;;;;;;6184215;23;20410;-74
2021/01/31 02:54:04;;;;;;;6.23;5.73;;;7.90;73.40;;;;;;6184412;23;20412;-74
2021/01/31 02:56:36;;;;;;;7.33;6.30;;;8.00;73.60;;;;;;6184588;23;20420;-73
2021/01/31 02:59:06;;;;;;;7.00;6.30;;;8.00;73.50;;;;;;6184364;23;20423;-74
2021/01/31 03:01:39;;;;;;;8.20;7.40;;;8.10;73.60;;;;;;6184820;23;20463;-74
2021/01/31 03:04:11;;;;;;;8.33;7.53;;;8.00;73.10;;;;;;6184300;23;20933;-74
2021/01/31 03:06:45;;;;;;;8.27;7.50;;;8.10;73.20;;;;;;6185260;23;20438;-74
2021/01/31 03:09:17;;;;;;;8.93;7.03;;;8.10;73.50;;;;;;6184277;23;20438;-74
2021/01/31 03:11:54;;;;;;;9.50;8.17;;;8.10;73.50;;;;;;6184328;23;21016;-74
2021/01/31 03:14:27;;;;;;;7.63;7.00;;;8.20;73.50;;;;;;6183567;23;20432;-74
2021/01/31 03:16:57;;;;;;;7.63;6.97;;;8.20;74.10;;;;;;6185924;23;20424;-75
2021/01/31 03:19:31;;;;;;;9.03;8.13;;;8.20;73.20;;;;;;6186930;23;20419;-74
2021/01/31 03:22:01;;;;;;;8.50;7.80;;;8.20;73.60;;;;;;6186263;23;20427;-75
2021/01/31 03:24:32;;;;;;;9.60;8.70;;;8.10;73.60;;;;;;6186728;23;20412;-75
2021/01/31 03:27:04;;;;;;;7.83;7.10;;;8.10;72.90;;;;;;6186472;23;20421;-75
2021/01/31 03:29:31;;;;;;;8.37;7.60;;;8.10;72.90;;;;;;6186025;23;20420;-74
2021/01/31 03:32:01;;;;;;;9.27;8.40;;;8.10;72.90;;;;;;6185974;23;20450;-74
2021/01/31 03:34:36;;;;;;;8.90;8.10;;;8.10;72.70;;;;;;6186069;23;20413;-75
2021/01/31 03:37:05;;;;;;;7.77;7.07;;;8.10;72.90;;;;;;6186212;23;20428;-75
2021/01/31 03:39:34;;;;;;;8.83;8.03;;;8.10;72.50;;;;;;6186129;23;20414;-75
2021/01/31 03:42:01;;;;;;;9.50;8.60;;;8.10;72.50;;;;;;6184179;23;20920;-75
2021/01/31 03:44:31;;;;;;;9.47;8.47;;;8.10;72.60;;;;;;6186034;23;20413;-74
2021/01/31 03:47:03;;;;;;;8.60;7.80;;;8.10;72.60;;;;;;6186231;23;20420;-74
2021/01/31 03:49:35;;;;;;;8.50;7.80;;;8.10;72.50;;;;;;6186574;23;20423;-74
2021/01/31 03:52:02;;;;;;;8.33;7.50;;;8.10;72.50;;;;;;6185982;23;20450;-74
2021/01/31 03:54:29;;;;;;;7.73;7.00;;;8.00;72.60;;;;;;6185948;23;20472;-74
2021/01/31 03:57:00;;;;;;;7.90;7.20;;;8.00;72.50;;;;;;6186031;23;20413;-74
2021/01/31 03:59:31;;;;;;;9.40;8.50;;;7.90;72.40;;;;;;6186118;23;20419;-74
2021/01/31 04:02:00;;;;;;;10.23;8.50;;;7.90;72.70;;;;;;6186329;23;20415;-75
2021/01/31 04:04:34;;;;;;;9.40;8.40;;;7.90;73.80;;;;;;6185751;23;20926;-75
2021/01/31 04:07:04;;;;;;;8.63;7.80;;;8.00;73.30;;;;;;6186399;23;20847;-75
2021/01/31 04:09:34;;;;;;;8.67;7.77;;;8.00;73.20;;;;;;6183700;23;20976;-75
2021/01/31 04:12:02;;;;;;;8.13;7.33;;;7.90;72.70;;;;;;6185786;23;20474;-75
2021/01/31 04:14:34;;;;;;;9.27;7.67;;;7.90;72.30;;;;;;6185700;23;20417;-74
2021/01/31 04:17:00;;;;;;;8.60;7.70;;;7.90;72.50;;;;;;6186334;23;20417;-74
2021/01/31 04:19:27;;;;;;;8.73;7.87;;;7.90;72.70;;;;;;6186408;23;20425;-74
2021/01/31 04:21:54;;;;;;;8.17;7.40;;;8.00;72.60;;;;;;6185952;23;20480;-74
2021/01/31 04:24:20;;;;;;;9.67;7.90;;;8.00;72.50;;;;;;6186072;23;20410;-76
2021/01/31 04:26:47;;;;;;;10.40;9.43;;;8.00;72.30;;;;;;6185066;23;20424;-75
2021/01/31 04:29:13;;;;;;;8.50;7.70;;;8.00;72.50;;;;;;6185985;23;20725;-75
2021/01/31 04:31:40;;;;;;;9.03;8.20;;;8.00;72.50;;;;;;6185848;23;20414;-75
2021/01/31 04:34:07;;;;;;;8.00;7.20;;;8.00;72.30;;;;;;6184273;23;20469;-76
2021/01/31 04:36:33;;;;;;;8.40;7.70;;;8.00;71.90;;;;;;6185890;23;20413;-77
2021/01/31 04:39:00;;;;;;;7.40;6.70;;;8.00;71.90;;;;;;6185587;23;20413;-76
2021/01/31 04:41:33;;;;;;;8.73;7.80;;;8.10;72.10;;;;;;6186304;23;20420;-76
2021/01/31 04:44:00;;;;;;;8.70;7.10;;;8.10;72.00;;;;;;6184855;23;20415;-77
2021/01/31 04:46:40;;;;;;;8.17;7.47;;;8.00;71.20;;;;;;6185071;23;20474;-76
2021/01/31 04:49:15;;;;;;;7.30;6.63;;;7.90;70.80;;;;;;6185494;23;20413;-76
2021/01/31 04:52:07;;;;;;;8.90;7.50;;;7.80;70.70;;;;;;6185459;23;20410;-76
2021/01/31 04:54:52;;;;;;;8.70;7.90;;;7.80;71.50;;;;;;6181122;23;20437;-74
2021/01/31 04:57:24;;;;;;;11.00;8.00;;;7.80;71.50;;;;;;6185217;23;20409;-76
2021/01/31 04:59:51;;;;;;;8.80;8.00;;;7.80;71.50;;;;;;6184845;23;20550;-75
2021/01/31 05:02:23;;;;;;;8.27;7.47;;;7.70;71.20;;;;;;6182919;23;20424;-76
2021/01/31 05:04:53;;;;;;;7.47;6.87;;;7.70;71.20;;;;;;6185696;23;20467;-74
2021/01/31 05:07:23;;;;;;;8.70;7.90;;;7.70;71.30;;;;;;6185304;23;21263;-74
2021/01/31 05:09:51;;;;;;;7.73;7.03;;;7.80;71.60;;;;;;6185372;23;20433;-76
2021/01/31 05:12:24;;;;;;;8.23;7.03;;;7.80;71.60;;;;;;6185226;23;20937;-76
2021/01/31 05:15:12;;;;;;;8.13;7.33;;;7.80;71.40;;;;;;6185026;23;20413;-75
2021/01/31 05:17:40;;;;;;;8.77;7.97;;;7.80;70.70;;;;;;6185072;23;20416;-76
2021/01/31 05:20:08;;;;;;;8.63;7.83;;;7.80;71.10;;;;;;6184643;23;20869;-77
2021/01/31 05:22:40;;;;;;;7.33;6.67;;;7.80;71.20;;;;;;6185699;23;20743;-77
2021/01/31 05:25:12;;;;;;;8.17;7.37;;;7.80;71.20;;;;;;6183243;23;20911;-75
2021/01/31 05:27:39;;;;;;;8.90;7.00;;;7.80;71.10;;;;;;6182869;23;20721;-74
2021/01/31 05:30:07;;;;;;;9.70;7.67;;;7.80;71.20;;;;;;6185439;23;20412;-75
2021/01/31 05:33:02;;;;;;;7.90;7.20;;;7.90;71.10;;;;;;6184999;23;20457;-74
2021/01/31 05:35:29;;;;;;;7.90;7.10;;;7.90;71.00;;;;;;6184287;23;20416;-76
2021/01/31 05:37:56;;;;;;;8.67;7.87;;;7.80;70.90;;;;;;6185106;23;20417;-75
2021/01/31 05:40:31;;;;;;;7.73;7.00;;;7.80;70.60;;;;;;6184603;23;20415;-74
2021/01/31 05:42:58;;;;;;;8.63;7.93;;;7.80;70.60;;;;;;6184779;23;20412;-74
2021/01/31 05:45:33;;;;;;;9.07;8.13;;;7.80;70.90;;;;;;6184620;23;20457;-74
2021/01/31 05:48:15;;;;;;;9.20;8.30;;;7.80;71.00;;;;;;6184722;23;20408;-75
2021/01/31 05:50:43;;;;;;;8.00;7.30;;;7.90;71.10;;;;;;6185073;23;20404;-74
2021/01/31 05:53:30;;;;;;;7.97;7.17;;;7.90;70.90;;;;;;6184569;23;20465;-74
2021/01/31 05:56:13;;;;;;;8.20;7.33;;;8.00;70.90;;;;;;6182765;23;20413;-73
2021/01/31 05:58:40;;;;;;;7.90;7.20;;;8.00;70.60;;;;;;6186191;23;20416;-76
2021/01/31 06:01:09;;;;;;;8.70;7.90;;;8.00;70.70;;;;;;6184869;23;20848;-75
2021/01/31 06:03:36;;;;;;;7.03;6.33;;;8.00;70.60;;;;;;6184677;23;20912;-75
2021/01/31 06:06:15;;;;;;;8.13;7.33;;;8.00;70.50;;;;;;6184941;23;20413;-75
2021/01/31 06:08:44;;;;;;;7.90;7.20;;;8.00;70.70;;;;;;6184518;23;20476;-74
2021/01/31 06:11:21;;;;;;;7.70;7.00;;;8.00;70.50;;;;;;6184713;23;20420;-75
2021/01/31 06:14:06;;;;;;;8.30;7.50;;;8.00;70.40;;;;;;6184324;23;20548;-74
2021/01/31 06:16:35;;;;;;;8.30;7.60;;;7.90;70.00;;;;;;6184106;23;20907;-76
2021/01/31 06:19:10;;;;;;;8.93;7.83;;;7.90;70.20;;;;;;6184371;23;20424;-75
2021/01/31 06:21:42;;;;;;;8.70;7.30;;;7.90;70.10;;;;;;6182125;23;20412;-74
2021/01/31 06:24:24;;;;;;;7.53;6.83;;;7.90;70.20;;;;;;6184811;23;20406;-76
2021/01/31 06:26:53;;;;;;;8.97;7.50;;;7.90;70.30;;;;;;6183997;23;20417;-76
2021/01/31 06:29:34;;;;;;;7.33;6.73;;;7.90;70.50;;;;;;6184320;23;20416;-77
2021/01/31 06:32:05;;;;;;;8.80;7.20;;;7.80;70.00;;;;;;6184174;23;20449;-75
2021/01/31 06:34:32;;;;;;;8.73;7.73;;;7.80;69.90;;;;;;6184330;23;20445;-76
2021/01/31 06:37:09;;;;;;;7.47;6.67;;;7.80;70.10;;;;;;6184240;23;20417;-76
2021/01/31 06:39:44;;;;;;;10.27;8.30;;;7.80;70.10;;;;;;6183796;23;20431;-76
2021/01/31 06:42:28;;;;;;;6.87;6.17;;;7.80;70.40;;;;;;6184699;23;20799;-76
2021/01/31 06:45:16;;;;;;;8.07;7.37;;;7.80;69.80;;;;;;6183612;23;20471;-76
2021/01/31 06:48:02;;;;;;;8.27;7.53;;;7.80;70.40;;;;;;6184393;23;20417;-77
2021/01/31 06:50:38;;;;;;;8.43;7.70;;;7.80;70.40;;;;;;6184357;23;20455;-76
2021/01/31 06:53:17;;;;;;;8.13;7.30;;;7.80;70.30;;;;;;6184747;23;20782;-77
2021/01/31 06:56:10;;;;;;;7.73;6.93;;;7.90;70.40;;;;;;6184100;23;20417;-76
2021/01/31 06:58:50;;;;;;;8.60;7.73;;;7.90;70.20;;;;;;6184735;23;20441;-76
2021/01/31 07:01:43;;;;;;;8.37;7.67;;;7.90;70.10;;;;;;6184231;23;20423;-75
2021/01/31 07:04:38;;;;;;;8.43;7.63;;;7.90;70.00;;;;;;6184444;23;20408;-75
2021/01/31 07:07:43;;;;;;;8.10;7.30;;;7.90;69.70;;;;;;6183938;23;20414;-74
2021/01/31 07:10:48;;;;;;;8.70;7.90;;;7.90;69.90;;;;;;6184316;23;20449;-74
2021/01/31 07:13:28;;;;;;;9.30;8.40;;;7.90;69.90;;;;;;6150285;23;20457;-74
2021/01/31 07:16:06;;;;;;;7.50;6.80;;;7.90;69.80;;;;;;6183297;23;20411;-74
2021/01/31 07:18:40;;;;;;;8.43;7.73;;;7.80;69.80;;;;;;6185017;23;20419;-76
2021/01/31 07:21:15;;;;;;;8.73;7.67;;;7.80;69.60;;;;;;6184580;23;20417;-75
2021/01/31 07:23:46;;;;;;;6.83;6.23;;;7.80;69.90;;;;;;6184714;23;20490;-74
2021/01/31 07:26:26;;;;;;;7.97;7.17;;;7.80;69.80;;;;;;6184695;23;20480;-74
2021/01/31 07:28:58;;;;;;;7.77;6.97;;;7.80;69.80;;;;;;6184802;23;20406;-74
2021/01/31 07:31:43;;;;;;;7.17;6.47;;;7.80;69.90;;;;;;6185003;23;20408;-74
2021/01/31 07:34:23;;;;;;;11.73;7.80;;;7.80;69.30;;;;;;6184419;23;20993;-74
2021/01/31 07:37:12;;;;;;;7.97;6.80;;;7.80;69.70;;;;;;6184584;23;20891;-74
2021/01/31 07:39:48;;;;;;;7.77;7.07;;;7.80;69.80;;;;;;6176464;23;20418;-75
2021/01/31 07:42:17;;;;;;;6.97;6.37;;;7.80;69.90;;;;;;6182539;23;20416;-74
2021/01/31 07:44:45;;;;;;;8.93;8.03;;;7.90;69.70;;;;;;6184421;23;20424;-74
2021/01/31 07:47:12;;;;;;;8.63;6.73;;;7.90;69.60;;;;;;6184803;23;20416;-74
2021/01/31 07:50:15;;;;;;;8.57;7.73;;;7.90;69.40;;;;;;6184451;23;20475;-74
2021/01/31 07:52:56;;;;;;;7.43;6.70;;;7.90;69.50;;;;;;6184536;23;20793;-74
2021/01/31 07:55:33;;;;;;;7.77;7.03;;;8.00;69.80;;;;;;6184449;23;20421;-75
2021/01/31 07:58:22;;;;;;;8.27;7.47;;;7.90;69.20;;;;;;6184645;23;20478;-74
2021/01/31 08:00:51;;;;;;;7.83;7.07;;;7.90;69.50;;;;;;6184412;23;20497;-74
2021/01/31 08:03:26;;;;;;;8.90;8.10;;;8.00;69.70;;;;;;6186489;23;20472;-74
2021/01/31 08:06:06;;;;;;;9.07;8.17;;;8.00;69.30;;;;;;6186207;23;20947;-75
2021/01/31 08:08:50;;;;;;;7.80;7.10;;;8.10;69.10;;;;;;6183814;23;20460;-75
2021/01/31 08:11:53;;;;;;;8.83;7.93;;;8.10;69.00;;;;;;6185914;23;20939;-74
2021/01/31 08:14:57;;;;;;;8.77;7.87;;;8.20;69.10;;;;;;6186283;23;20444;-75
2021/01/31 08:18:08;;;;;;;8.67;7.40;;;8.20;69.20;;;;;;6186133;23;20474;-74
2021/01/31 08:20:54;;;;;;;7.83;7.13;;;8.20;68.80;;;;;;6186470;23;20493;-74
2021/01/31 08:23:44;;;;;;;9.83;8.67;;;8.20;68.80;;;;;;6186467;23;20718;-75
2021/01/31 08:26:10;;;;;;;8.57;7.77;;;8.20;69.00;;;;;;6186328;23;20413;-75
2021/01/31 08:28:38;;;;;;;8.33;7.50;;;8.20;69.10;;;;;;6185573;23;20416;-75
2021/01/31 08:31:13;;;;;;;7.50;6.80;;;8.30;69.20;;;;;;6186101;23;20419;-74
2021/01/31 08:33:41;;;;;;;7.43;6.63;;;8.30;68.80;;;;;;6184092;23;21336;-74
2021/01/31 08:36:23;;;;;;;7.80;7.10;;;8.20;68.40;;;;;;6186232;23;20554;-75
2021/01/31 08:38:52;;;;;;;8.40;7.00;;;8.20;68.40;;;;;;6185884;23;20420;-74
2021/01/31 08:41:41;;;;;;;8.10;7.30;;;8.10;68.30;;;;;;6185744;23;20417;-74
2021/01/31 08:44:40;;;;;;;8.00;7.20;;;8.10;68.40;;;;;;6185362;23;20409;-75
2021/01/31 08:47:07;;;;;;;9.20;8.20;;;8.20;68.80;;;;;;6185655;23;20803;-74
2021/01/31 08:49:34;;;;;;;7.90;7.10;;;8.20;69.10;;;;;;6185747;23;20739;-74
2021/01/31 08:52:04;;;;;;;8.57;7.77;;;8.30;68.90;;;;;;6185662;23;20779;-74
2021/01/31 08:54:31;;;;;;;7.70;6.80;;;8.30;68.80;;;;;;6186169;23;20408;-74
2021/01/31 08:56:59;;;;;;;12.70;8.07;;;8.30;68.80;;;;;;6185774;23;20412;-74
2021/01/31 08:59:28;;;;;;;8.43;7.63;;;8.40;68.50;;;;;;6185276;23;20419;-74
2021/01/31 09:02:24;;;;;;;7.40;6.80;;;8.40;68.20;;;;;;6183779;23;20413;-75
2021/01/31 09:04:54;;;;;;;8.27;7.43;;;8.50;68.30;;;;;;6157389;23;20415;-75
2021/01/31 09:07:29;;;;;;;8.70;7.80;;;8.50;68.40;;;;;;6184261;23;20472;-75
2021/01/31 09:10:01;;;;;;;7.77;7.07;;;8.50;68.20;;;;;;6185449;23;20429;-75
2021/01/31 09:12:28;;;;;;;9.33;8.17;;;8.50;68.30;;;;;;6184990;23;21020;-74
2021/01/31 09:15:07;;;;;;;8.53;7.83;;;8.60;68.30;;;;;;6185521;23;20424;-74
2021/01/31 09:17:34;;;;;;;8.67;7.77;;;8.60;68.20;;;;;;6185383;23;20745;-75
2021/01/31 09:20:21;;;;;;;8.97;8.17;;;8.60;67.90;;;;;;6185205;23;20421;-75
2021/01/31 09:22:50;;;;;;;8.63;7.67;;;8.70;67.70;;;;;;6185059;23;20495;-74
2021/01/31 09:25:20;;;;;;;7.63;6.93;;;8.70;67.50;;;;;;6185048;23;20987;-77
2021/01/31 09:27:56;;;;;;;7.60;6.80;;;8.80;67.50;;;;;;6183308;23;20453;-74
2021/01/31 09:30:24;;;;;;;10.30;8.33;;;8.80;67.50;;;;;;6185306;23;20448;-76
2021/01/31 09:32:53;;;;;;;7.87;7.17;;;8.80;68.30;;;;;;6185271;23;20473;-74
2021/01/31 09:35:24;;;;;;;10.00;9.00;;;8.80;67.30;;;;;;6184979;23;20413;-76
2021/01/31 09:37:54;;;;;;;6.97;6.47;;;8.90;67.40;;;;;;6185239;23;20724;-76
2021/01/31 09:40:21;;;;;;;8.43;7.67;;;8.90;67.40;;;;;;6185230;23;20479;-75
2021/01/31 09:42:49;;;;;;;8.10;7.40;;;8.90;67.20;;;;;;6185565;23;20415;-75
2021/01/31 09:45:29;;;;;;;7.83;7.13;;;9.00;67.40;;;;;;6185013;23;20413;-75
2021/01/31 09:47:56;;;;;;;7.70;7.03;;;9.00;67.30;;;;;;6184823;23;20969;-75
2021/01/31 09:50:23;;;;;;;7.30;6.70;;;9.00;66.90;;;;;;6185079;23;20727;-76
2021/01/31 09:52:52;;;;;;;7.60;6.87;;;9.00;66.70;;;;;;6184867;23;20457;-76
2021/01/31 09:55:27;;;;;;;7.57;6.97;;;8.90;66.50;;;;;;6183109;23;20476;-76
2021/01/31 09:57:54;;;;;;;9.00;8.07;;;9.00;67.00;;;;;;6184439;23;20409;-74
2021/01/31 10:00:27;;;;;;;9.53;8.53;;;9.00;66.80;;;;;;6184896;23;20460;-74
2021/01/31 10:03:05;;;;;;;7.37;6.67;;;9.00;67.00;;;;;;6184830;23;20414;-74
2021/01/31 10:05:33;;;;;;;9.40;8.50;;;9.00;67.10;;;;;;6185471;23;20412;-74
2021/01/31 10:08:06;;;;;;;8.60;7.73;;;9.00;66.90;;;;;;6184900;23;20418;-74
2021/01/31 10:10:36;;;;;;;7.73;7.03;;;9.10;67.00;;;;;;6184549;23;20540;-74
2021/01/31 10:13:20;;;;;;;8.90;8.13;;;9.00;66.90;;;;;;6184587;23;20447;-74
2021/01/31 10:15:53;;;;;;;8.67;7.97;;;9.10;66.80;;;;;;6185019;23;20739;-75
2021/01/31 10:18:31;;;;;;;9.13;8.20;;;9.10;66.40;;;;;;6185123;23;20414;-74
2021/01/31 10:21:16;;;;;;;9.27;7.50;;;9.10;66.40;;;;;;6183170;23;20425;-75
2021/01/31 10:23:45;;;;;;;8.40;7.60;;;9.20;66.80;;;;;;6184823;23;20418;-74
2021/01/31 10:26:14;;;;;;;9.00;8.20;;;9.20;66.50;;;;;;6184994;23;20410;-74
2021/01/31 10:28:46;;;;;;;9.17;8.37;;;9.30;66.30;;;;;;6185090;23;20736;-74
2021/01/31 10:31:24;;;;;;;8.73;7.93;;;9.40;66.20;;;;;;6184797;23;20465;-74
2021/01/31 10:33:51;;;;;;;7.50;6.80;;;9.50;65.90;;;;;;6184642;23;20946;-74
2021/01/31 10:36:25;;;;;;;10.13;8.50;;;9.60;65.60;;;;;;6184802;23;20492;-74
2021/01/31 10:38:54;;;;;;;8.63;7.80;;;9.70;65.70;;;;;;6185199;23;20750;-74
2021/01/31 10:41:21;;;;;;;7.93;7.23;;;9.80;65.30;;;;;;6185011;23;20477;-74
2021/01/31 10:43:55;;;;;;;9.10;8.27;;;9.80;64.90;;;;;;6187079;23;20403;-74
2021/01/31 10:46:21;;;;;;;8.80;7.90;;;9.90;64.90;;;;;;6182700;23;20460;-74
2021/01/31 10:48:48;;;;;;;10.23;7.27;;;9.80;64.60;;;;;;6185179;23;20408;-74
2021/01/31 10:51:14;;;;;;;8.53;7.73;;;9.90;64.70;;;;;;6184662;23;20906;-74
2021/01/31 10:53:42;;;;;;;9.30;8.33;;;9.90;64.80;;;;;;6184813;23;20486;-74
2021/01/31 10:56:09;;;;;;;8.30;7.60;;;9.80;64.60;;;;;;6185309;23;20428;-74
2021/01/31 10:58:36;;;;;;;8.80;8.00;;;9.80;64.20;;;;;;6184480;23;20419;-74
2021/01/31 11:01:02;;;;;;;7.93;7.23;;;9.80;63.70;;;;;;6184805;23;20412;-74
2021/01/31 11:03:29;;;;;;;10.00;9.00;;;9.80;63.70;;;;;;6184655;23;20414;-74
2021/01/31 11:05:55;;;;;;;10.43;9.33;;;9.70;63.80;;;;;;6185184;23;20416;-74
2021/01/31 11:08:22;;;;;;;9.70;8.03;;;9.70;64.20;;;;;;6184340;23;20462;-74
2021/01/31 11:10:48;;;;;;;12.20;8.90;;;9.70;64.50;;;;;;6184278;23;20500;-74
2021/01/31 11:13:16;;;;;;;9.70;8.80;;;9.70;64.40;;;;;;6182420;23;20458;-74
2021/01/31 11:15:43;;;;;;;8.83;7.93;;;9.70;64.30;;;;;;6184298;23;20412;-74
2021/01/31 11:18:09;;;;;;;8.57;7.83;;;9.70;64.10;;;;;;6184316;23;20426;-74
2021/01/31 11:20:36;;;;;;;9.13;8.23;;;9.70;64.10;;;;;;6184512;23;20439;-74
2021/01/31 11:23:02;;;;;;;10.70;9.70;;;9.80;64.10;;;;;;6184830;23;20462;-74
2021/01/31 11:25:29;;;;;;;10.27;9.27;;;9.80;63.90;;;;;;6184448;23;20923;-74
2021/01/31 11:27:55;;;;;;;9.20;7.67;;;9.90;63.80;;;;;;6184305;23;20420;-74
2021/01/31 11:30:23;;;;;;;9.20;8.30;;;10.00;62.30;;;;;;6184397;23;20412;-74
2021/01/31 11:32:50;;;;;;;9.97;8.10;;;10.10;62.00;;;;;;6184257;23;20438;-74
2021/01/31 11:35:16;;;;;;;9.20;8.40;;;10.30;63.00;;;;;;6185310;23;20419;-74
2021/01/31 11:37:43;;;;;;;8.63;7.83;;;10.40;61.80;;;;;;6186479;23;20408;-74
2021/01/31 11:40:10;;;;;;;8.93;8.17;;;10.50;61.30;;;;;;6184532;23;20456;-74
2021/01/31 11:42:38;;;;;;;10.13;9.10;;;10.60;61.20;;;;;;6186391;23;20424;-74
2021/01/31 11:45:06;;;;;;;8.93;8.03;;;10.70;61.10;;;;;;6186031;23;20413;-74
2021/01/31 11:47:34;;;;;;;9.60;8.70;;;10.80;60.70;;;;;;6186519;23;20723;-74
2021/01/31 11:50:00;;;;;;;8.47;7.67;;;10.70;60.60;;;;;;6186221;23;20466;-74
2021/01/31 11:52:27;;;;;;;10.73;9.07;;;10.70;60.70;;;;;;6186105;23;20420;-74
2021/01/31 11:54:54;;;;;;;9.47;7.90;;;10.70;60.10;;;;;;6186219;23;20409;-74
2021/01/31 11:57:21;;;;;;;9.93;8.97;;;10.50;59.70;;;;;;6186495;23;20484;-74
2021/01/31 11:59:47;;;;;;;8.10;7.50;;;10.40;59.90;;;;;;6186211;23;20444;-74
2021/01/31 12:02:14;;;;;;;9.23;8.33;;;10.30;60.00;;;;;;6186376;23;20409;-74
2021/01/31 12:04:42;;;;;;;9.63;8.70;;;10.20;60.30;;;;;;6184438;23;20908;-74
2021/01/31 12:07:09;;;;;;;9.83;8.93;;;10.20;60.40;;;;;;6186112;23;20413;-75
2021/01/31 12:09:36;;;;;;;9.27;8.23;;;10.30;60.70;;;;;;6186115;23;20824;-74
2021/01/31 12:12:03;;;;;;;9.30;8.40;;;10.30;60.90;;;;;;6186248;23;20415;-74
2021/01/31 12:14:30;;;;;;;9.93;8.93;;;10.40;60.80;;;;;;6185658;23;20463;-74
2021/01/31 12:16:56;;;;;;;8.93;8.00;;;10.30;60.50;;;;;;6186279;23;20419;-74
2021/01/31 12:19:23;;;;;;;8.93;8.13;;;10.20;60.80;;;;;;6186160;23;20482;-74
2021/01/31 12:21:51;;;;;;;8.73;7.70;;;10.20;60.90;;;;;;6186224;23;20439;-74
2021/01/31 12:24:18;;;;;;;10.70;7.60;;;10.20;60.80;;;;;;6186040;23;20413;-74
2021/01/31 12:26:46;;;;;;;10.70;9.50;;;10.10;60.70;;;;;;6185770;23;20408;-74
2021/01/31 12:29:13;;;;;;;9.43;8.43;;;10.20;60.60;;;;;;6187642;23;20412;-74
2021/01/31 12:31:40;;;;;;;11.67;9.47;;;10.20;60.80;;;;;;6184245;23;20746;-74
2021/01/31 12:34:07;;;;;;;8.47;7.77;;;10.20;60.60;;;;;;6185949;23;20457;-74
2021/01/31 12:36:33;;;;;;;8.73;7.77;;;10.20;60.40;;;;;;6186131;23;20421;-75
2021/01/31 12:39:01;;;;;;;10.57;9.47;;;10.30;60.40;;;;;;6186218;23;20408;-75
2021/01/31 12:41:27;;;;;;;8.77;7.87;;;10.30;60.70;;;;;;6185687;23;20470;-73
2021/01/31 12:43:54;;;;;;;8.67;7.80;;;10.30;60.60;;;;;;6185536;23;20915;-73
2021/01/31 12:46:23;;;;;;;9.90;9.00;;;10.30;60.60;;;;;;6185462;23;20418;-74
2021/01/31 12:48:49;;;;;;;8.87;8.13;;;10.30;60.60;;;;;;6185400;23;20448;-73
2021/01/31 12:51:16;;;;;;;9.40;8.60;;;10.30;60.40;;;;;;6185832;23;20417;-74
2021/01/31 12:53:42;;;;;;;9.40;8.50;;;10.20;60.80;;;;;;6185750;23;20456;-74
2021/01/31 12:56:10;;;;;;;8.00;7.13;;;10.20;60.80;;;;;;6185755;23;20460;-74
2021/01/31 12:58:37;;;;;;;8.77;7.90;;;10.30;60.90;;;;;;6183905;23;20417;-73
2021/01/31 13:01:03;;;;;;;9.33;8.43;;;10.30;61.10;;;;;;6185918;23;20415;-73
2021/01/31 13:03:30;;;;;;;9.50;8.50;;;10.30;60.80;;;;;;6185667;23;20993;-73
2021/01/31 13:06:12;;;;;;;10.93;8.50;;;10.30;60.80;;;;;;6186030;23;20921;-74
2021/01/31 13:08:38;;;;;;;9.30;8.47;;;10.30;60.60;;;;;;6185454;23;20443;-74
2021/01/31 13:11:05;;;;;;;10.83;8.80;;;10.20;60.20;;;;;;6185490;23;20423;-73
2021/01/31 13:13:33;;;;;;;10.27;9.27;;;10.10;60.40;;;;;;6185824;23;20518;-73
2021/01/31 13:16:00;;;;;;;8.90;8.00;;;10.10;61.00;;;;;;6185366;23;20420;-73
2021/01/31 13:18:26;;;;;;;11.43;8.30;;;10.10;61.20;;;;;;6185744;23;20416;-73
2021/01/31 13:20:53;;;;;;;11.40;10.20;;;10.10;61.60;;;;;;6185536;23;20961;-73